sensor_id;sensor_type;location;lat;lon;timestamp;pressure;altitude;pressure_sealevel;temperature;humidity
59513;BME280;45330;51.634;5.562;2023-02-12T00:02:04;103747.88;;;6.77;100.00
59513;BME280;45330;51.634;5.562;2023-02-12T00:04:29;103729.13;;;6.66;100.00
59513;BME280;45330;51.634;5.562;2023-02-12T00:06:55;103738.16;;;6.73;100.00
59513;BME280;45330;51.634;5.562;2023-02-12T00:09:20;103749.56;;;6.77;100.00
59513;BME280;45330;51.634;5.562;2023-02-12T00:11:46;103774.38;;;6.88;100.00
59513;BME280;45330;51.634;5.562;2023-02-12T00:14:11;103763.84;;;6.85;100.00
59513;BME280;45330;51.634;5.562;2023-02-12T00:16:36;103770.16;;;6.90;100.00
59513;BME280;45330;51.634;5.562;2023-02-12T00:19:02;103763.72;;;6.83;100.00
59513;BME280;45330;51.634;5.562;2023-02-12T00:21:27;103746.81;;;6.74;100.00
59513;BME280;45330;51.634;5.562;2023-02-12T00:23:53;103771.63;;;6.85;100.00
59513;BME280;45330;51.634;5.562;2023-02-12T00:26:20;103747.78;;;6.76;100.00
59513;BME280;45330;51.634;5.562;2023-02-12T00:28:46;103760.88;;;6.79;100.00
59513;BME280;45330;51.634;5.562;2023-02-12T00:31:17;103774.19;;;6.85;100.00
59513;BME280;45330;51.634;5.562;2023-02-12T00:33:43;103779.53;;;6.88;100.00
59513;BME280;45330;51.634;5.562;2023-02-12T00:36:12;103784.63;;;6.86;100.00
59513;BME280;45330;51.634;5.562;2023-02-12T00:38:37;103788.03;;;6.85;100.00
59513;BME280;45330;51.634;5.562;2023-02-12T00:41:03;103768.66;;;6.79;100.00
59513;BME280;45330;51.634;5.562;2023-02-12T00:43:28;103781.97;;;6.85;100.00
59513;BME280;45330;51.634;5.562;2023-02-12T00:45:54;103773.03;;;6.80;100.00
59513;BME280;45330;51.634;5.562;2023-02-12T00:48:19;103775.88;;;6.84;100.00
59513;BME280;45330;51.634;5.562;2023-02-12T00:50:45;103769.97;;;6.87;100.00
59513;BME280;45330;51.634;5.562;2023-02-12T00:53:11;103757.66;;;6.83;100.00
59513;BME280;45330;51.634;5.562;2023-02-12T00:55:37;103763.84;;;6.85;100.00
59513;BME280;45330;51.634;5.562;2023-02-12T00:58:02;103751.16;;;6.75;100.00
59513;BME280;45330;51.634;5.562;2023-02-12T01:00:28;103750.03;;;6.69;100.00
59513;BME280;45330;51.634;5.562;2023-02-12T01:02:53;103761.06;;;6.82;100.00
59513;BME280;45330;51.634;5.562;2023-02-12T01:05:19;103772.25;;;6.81;100.00
59513;BME280;45330;51.634;5.562;2023-02-12T01:07:52;103772.16;;;6.79;100.00
59513;BME280;45330;51.634;5.562;2023-02-12T01:10:18;103770.44;;;6.80;100.00
59513;BME280;45330;51.634;5.562;2023-02-12T01:12:45;103766.78;;;6.76;100.00
59513;BME280;45330;51.634;5.562;2023-02-12T01:15:10;103726.84;;;6.56;100.00
59513;BME280;45330;51.634;5.562;2023-02-12T01:17:36;103757.81;;;6.69;100.00
59513;BME280;45330;51.634;5.562;2023-02-12T01:20:03;103751.53;;;6.66;100.00
59513;BME280;45330;51.634;5.562;2023-02-12T01:22:33;103761.44;;;6.73;100.00
59513;BME280;45330;51.634;5.562;2023-02-12T01:24:58;103758.75;;;6.72;100.00
59513;BME280;45330;51.634;5.562;2023-02-12T01:27:24;103771.88;;;6.75;100.00
59513;BME280;45330;51.634;5.562;2023-02-12T01:29:49;103764.94;;;6.74;100.00
59513;BME280;45330;51.634;5.562;2023-02-12T01:32:15;103764.75;;;6.70;100.00
59513;BME280;45330;51.634;5.562;2023-02-12T01:34:40;103768.31;;;6.73;100.00
59513;BME280;45330;51.634;5.562;2023-02-12T01:37:05;103764.66;;;6.69;100.00
59513;BME280;45330;51.634;5.562;2023-02-12T01:39:31;103769.91;;;6.70;100.00
59513;BME280;45330;51.634;5.562;2023-02-12T01:41:56;103766.53;;;6.72;100.00
59513;BME280;45330;51.634;5.562;2023-02-12T01:44:24;103754.38;;;6.70;100.00
59513;BME280;45330;51.634;5.562;2023-02-12T01:47:11;103768.31;;;6.73;100.00
59513;BME280;45330;51.634;5.562;2023-02-12T01:49:42;103738.97;;;6.57;100.00
59513;BME280;45330;51.634;5.562;2023-02-12T01:52:13;103732.00;;;6.56;100.00
59513;BME280;45330;51.634;5.562;2023-02-12T01:54:40;103765.56;;;6.69;100.00
59513;BME280;45330;51.634;5.562;2023-02-12T01:57:07;103738.28;;;6.60;100.00
59513;BME280;45330;51.634;5.562;2023-02-12T01:59:34;103760.19;;;6.66;100.00
59513;BME280;45330;51.634;5.562;2023-02-12T02:02:02;103768.03;;;6.68;100.00
59513;BME280;45330;51.634;5.562;2023-02-12T02:04:29;103743.16;;;6.55;100.00
59513;BME280;45330;51.634;5.562;2023-02-12T02:06:58;103760.19;;;6.66;100.00
59513;BME280;45330;51.634;5.562;2023-02-12T02:09:24;103778.22;;;6.65;100.00
59513;BME280;45330;51.634;5.562;2023-02-12T02:11:50;103760.94;;;6.64;100.00
59513;BME280;45330;51.634;5.562;2023-02-12T02:14:34;103741.47;;;6.56;100.00
59513;BME280;45330;51.634;5.562;2023-02-12T02:26:20;103734.81;;;6.44;100.00
59513;BME280;45330;51.634;5.562;2023-02-12T02:31:59;103751.84;;;6.56;100.00
59513;BME280;45330;51.634;5.562;2023-02-12T02:34:39;103761.34;;;6.57;100.00
59513;BME280;45330;51.634;5.562;2023-02-12T02:37:14;103735.50;;;6.42;100.00
59513;BME280;45330;51.634;5.562;2023-02-12T02:42:37;103742.03;;;6.50;100.00
59513;BME280;45330;51.634;5.562;2023-02-12T02:45:18;103753.41;;;6.53;100.00
59513;BME280;45330;51.634;5.562;2023-02-12T02:48:09;103745.66;;;6.53;100.00
59513;BME280;45330;51.634;5.562;2023-02-12T02:50:34;103746.19;;;6.48;100.00
59513;BME280;45330;51.634;5.562;2023-02-12T02:53:12;103758.50;;;6.52;100.00
59513;BME280;45330;51.634;5.562;2023-02-12T02:55:44;103760.22;;;6.51;100.00
59513;BME280;45330;51.634;5.562;2023-02-12T02:58:15;103739.88;;;6.43;100.00
59513;BME280;45330;51.634;5.562;2023-02-12T03:00:55;103754.34;;;6.54;100.00
59513;BME280;45330;51.634;5.562;2023-02-12T03:03:32;103740.84;;;6.45;100.00
59513;BME280;45330;51.634;5.562;2023-02-12T03:06:03;103751.84;;;6.56;100.00
59513;BME280;45330;51.634;5.562;2023-02-12T03:08:35;103723.47;;;6.42;100.00
59513;BME280;45330;51.634;5.562;2023-02-12T03:11:10;103752.78;;;6.58;100.00
59513;BME280;45330;51.634;5.562;2023-02-12T03:13:47;103744.00;;;6.54;100.00
59513;BME280;45330;51.634;5.562;2023-02-12T03:16:25;103733.72;;;6.41;100.00
59513;BME280;45330;51.634;5.562;2023-02-12T03:18:55;103744.94;;;6.56;100.00
59513;BME280;45330;51.634;5.562;2023-02-12T03:21:34;103725.41;;;6.46;100.00
59513;BME280;45330;51.634;5.562;2023-02-12T03:27:01;103747.53;;;6.56;100.00
59513;BME280;45330;51.634;5.562;2023-02-12T03:29:29;103728.63;;;6.42;100.00
59513;BME280;45330;51.634;5.562;2023-02-12T03:37:41;103752.53;;;6.53;100.00
59513;BME280;45330;51.634;5.562;2023-02-12T03:40:17;103750.75;;;6.52;100.00
59513;BME280;45330;51.634;5.562;2023-02-12T03:42:51;103717.25;;;6.39;100.00
59513;BME280;45330;51.634;5.562;2023-02-12T03:48:24;103731.84;;;6.38;100.00
59513;BME280;45330;51.634;5.562;2023-02-12T03:50:57;103741.66;;;6.44;100.00
59513;BME280;45330;51.634;5.562;2023-02-12T03:53:26;103738.09;;;6.42;100.00
59513;BME280;45330;51.634;5.562;2023-02-12T03:56:00;103721.06;;;6.30;100.00
59513;BME280;45330;51.634;5.562;2023-02-12T03:58:28;103746.91;;;6.45;100.00
59513;BME280;45330;51.634;5.562;2023-02-12T04:00:57;103733.88;;;6.44;100.00
59513;BME280;45330;51.634;5.562;2023-02-12T04:03:23;103724.16;;;6.40;100.00
59513;BME280;45330;51.634;5.562;2023-02-12T04:05:49;103735.50;;;6.42;100.00
59513;BME280;45330;51.634;5.562;2023-02-12T04:08:14;103741.66;;;6.44;100.00
59513;BME280;45330;51.634;5.562;2023-02-12T04:13:23;103746.19;;;6.48;100.00
59513;BME280;45330;51.634;5.562;2023-02-12T04:21:13;103749.69;;;6.48;100.00
59513;BME280;45330;51.634;5.562;2023-02-12T04:23:48;103757.72;;;6.53;100.00
59513;BME280;45330;51.634;5.562;2023-02-12T04:28:58;103763.84;;;6.55;100.00
59513;BME280;45330;51.634;5.562;2023-02-12T04:31:38;103775.81;;;6.53;100.00
59513;BME280;45330;51.634;5.562;2023-02-12T04:34:22;103767.91;;;6.50;100.00
59513;BME280;45330;51.634;5.562;2023-02-12T04:36:56;103744.88;;;6.40;100.00
59513;BME280;45330;51.634;5.562;2023-02-12T04:39:27;103767.06;;;6.51;100.00
59513;BME280;45330;51.634;5.562;2023-02-12T04:41:57;103747.28;;;6.37;100.00
59513;BME280;45330;51.634;5.562;2023-02-12T04:44:26;103770.28;;;6.47;100.00
59513;BME280;45330;51.634;5.562;2023-02-12T04:46:52;103772.06;;;6.48;100.00
59513;BME280;45330;51.634;5.562;2023-02-12T04:49:19;103752.53;;;6.38;100.00
59513;BME280;45330;51.634;5.562;2023-02-12T04:51:45;103743.97;;;6.39;100.00
59513;BME280;45330;51.634;5.562;2023-02-12T04:54:12;103756.91;;;6.39;100.00
59513;BME280;45330;51.634;5.562;2023-02-12T04:56:37;103751.81;;;6.41;100.00
59513;BME280;45330;51.634;5.562;2023-02-12T04:59:03;103767.81;;;6.48;100.00
59513;BME280;45330;51.634;5.562;2023-02-12T05:01:29;103769.47;;;6.48;100.00
59513;BME280;45330;51.634;5.562;2023-02-12T05:03:54;103749.78;;;6.35;100.00
59513;BME280;45330;51.634;5.562;2023-02-12T05:06:20;103749.84;;;6.37;100.00
59513;BME280;45330;51.634;5.562;2023-02-12T05:08:45;103766.91;;;6.48;100.00
59513;BME280;45330;51.634;5.562;2023-02-12T05:11:11;103742.00;;;6.35;100.00
59513;BME280;45330;51.634;5.562;2023-02-12T05:13:37;103751.56;;;6.36;100.00
59513;BME280;45330;51.634;5.562;2023-02-12T05:16:06;103751.47;;;6.34;100.00
59513;BME280;45330;51.634;5.562;2023-02-12T05:18:32;103752.44;;;6.37;100.00
59513;BME280;45330;51.634;5.562;2023-02-12T05:20:59;103774.56;;;6.46;100.00
59513;BME280;45330;51.634;5.562;2023-02-12T05:23:26;103738.16;;;6.28;100.00
59513;BME280;45330;51.634;5.562;2023-02-12T05:25:52;103778.16;;;6.48;100.00
59513;BME280;45330;51.634;5.562;2023-02-12T05:28:17;103755.03;;;6.37;100.00
59513;BME280;45330;51.634;5.562;2023-02-12T05:30:43;103756.66;;;6.34;100.00
59513;BME280;45330;51.634;5.562;2023-02-12T05:33:08;103785.91;;;6.48;100.00
59513;BME280;45330;51.634;5.562;2023-02-12T05:35:34;103777.88;;;6.44;100.00
59513;BME280;45330;51.634;5.562;2023-02-12T05:38:00;103776.19;;;6.44;100.00
59513;BME280;45330;51.634;5.562;2023-02-12T05:40:25;103783.22;;;6.47;100.00
59513;BME280;45330;51.634;5.562;2023-02-12T05:42:51;103776.38;;;6.47;100.00
59513;BME280;45330;51.634;5.562;2023-02-12T05:45:17;103780.75;;;6.48;100.00
59513;BME280;45330;51.634;5.562;2023-02-12T05:47:42;103780.63;;;6.47;100.00
59513;BME280;45330;51.634;5.562;2023-02-12T05:50:08;103789.28;;;6.47;100.00
59513;BME280;45330;51.634;5.562;2023-02-12T05:52:33;103792.69;;;6.46;100.00
59513;BME280;45330;51.634;5.562;2023-02-12T05:54:59;103794.38;;;6.46;100.00
59513;BME280;45330;51.634;5.562;2023-02-12T05:57:24;103765.91;;;6.31;100.00
59513;BME280;45330;51.634;5.562;2023-02-12T05:59:49;103754.13;;;6.21;100.00
59513;BME280;45330;51.634;5.562;2023-02-12T06:02:15;103796.78;;;6.43;100.00
59513;BME280;45330;51.634;5.562;2023-02-12T06:04:40;103761.28;;;6.25;100.00
59513;BME280;45330;51.634;5.562;2023-02-12T06:07:05;103784.28;;;6.35;100.00
59513;BME280;45330;51.634;5.562;2023-02-12T06:09:32;103784.19;;;6.34;100.00
59513;BME280;45330;51.634;5.562;2023-02-12T06:11:59;103765.19;;;6.18;100.00
59513;BME280;45330;51.634;5.562;2023-02-12T06:14:24;103801.59;;;6.37;100.00
59513;BME280;45330;51.634;5.562;2023-02-12T06:16:50;103783.75;;;6.26;100.00
59513;BME280;45330;51.634;5.562;2023-02-12T06:19:16;103795.44;;;6.34;100.00
59513;BME280;45330;51.634;5.562;2023-02-12T06:21:42;103800.63;;;6.34;100.00
59513;BME280;45330;51.634;5.562;2023-02-12T06:24:10;103796.25;;;6.33;100.00
59513;BME280;45330;51.634;5.562;2023-02-12T06:26:36;103774.72;;;6.20;100.00
59513;BME280;45330;51.634;5.562;2023-02-12T06:29:01;103803.00;;;6.31;100.00
59513;BME280;45330;51.634;5.562;2023-02-12T06:31:29;103775.44;;;6.17;100.00
59513;BME280;45330;51.634;5.562;2023-02-12T06:33:59;103803.00;;;6.31;100.00
59513;BME280;45330;51.634;5.562;2023-02-12T06:36:25;103781.41;;;6.16;100.00
59513;BME280;45330;51.634;5.562;2023-02-12T06:38:51;103788.53;;;6.20;100.00
59513;BME280;45330;51.634;5.562;2023-02-12T06:41:17;103771.97;;;6.16;100.00
59513;BME280;45330;51.634;5.562;2023-02-12T06:43:42;103771.72;;;6.12;100.00
59513;BME280;45330;51.634;5.562;2023-02-12T06:46:08;103801.84;;;6.26;100.00
59513;BME280;45330;51.634;5.562;2023-02-12T06:48:33;103794.09;;;6.26;100.00
59513;BME280;45330;51.634;5.562;2023-02-12T06:53:34;103805.31;;;6.27;100.00
59513;BME280;45330;51.634;5.562;2023-02-12T06:56:05;103815.75;;;6.28;100.00
59513;BME280;45330;51.634;5.562;2023-02-12T06:58:31;103792.66;;;6.16;100.00
59513;BME280;45330;51.634;5.562;2023-02-12T07:01:07;103801.19;;;6.15;100.00
59513;BME280;45330;51.634;5.562;2023-02-12T07:03:32;103828.34;;;6.22;100.00
59513;BME280;45330;51.634;5.562;2023-02-12T07:05:57;103810.50;;;6.12;100.00
59513;BME280;45330;51.634;5.562;2023-02-12T07:08:23;103821.00;;;6.15;100.00
59513;BME280;45330;51.634;5.562;2023-02-12T07:10:48;103820.84;;;6.12;100.00
59513;BME280;45330;51.634;5.562;2023-02-12T07:13:14;103830.44;;;6.14;100.00
59513;BME280;45330;51.634;5.562;2023-02-12T07:15:39;103829.56;;;6.14;100.00
59513;BME280;45330;51.634;5.562;2023-02-12T07:18:05;103824.66;;;6.18;100.00
59513;BME280;45330;51.634;5.562;2023-02-12T07:20:30;103829.81;;;6.18;100.00
59513;BME280;45330;51.634;5.562;2023-02-12T07:22:55;103798.09;;;6.06;100.00
59513;BME280;45330;51.634;5.562;2023-02-12T07:25:21;103808.00;;;6.13;100.00
59513;BME280;45330;51.634;5.562;2023-02-12T07:27:46;103829.38;;;6.26;100.00
59513;BME280;45330;51.634;5.562;2023-02-12T07:30:12;103826.09;;;6.28;100.00
59513;BME280;45330;51.634;5.562;2023-02-12T07:32:37;103823.69;;;6.31;100.00
59513;BME280;45330;51.634;5.562;2023-02-12T07:35:03;103831.56;;;6.33;100.00
59513;BME280;45330;51.634;5.562;2023-02-12T07:37:28;103825.66;;;6.35;100.00
59513;BME280;45330;51.634;5.562;2023-02-12T07:39:53;103829.16;;;6.36;100.00
59513;BME280;45330;51.634;5.562;2023-02-12T07:42:19;103801.38;;;6.18;100.00
59513;BME280;45330;51.634;5.562;2023-02-12T07:44:45;103829.94;;;6.35;100.00
59513;BME280;45330;51.634;5.562;2023-02-12T07:47:10;103843.53;;;6.46;100.00
59513;BME280;45330;51.634;5.562;2023-02-12T07:49:35;103846.22;;;6.47;100.00
59513;BME280;45330;51.634;5.562;2023-02-12T07:52:01;103832.28;;;6.45;100.00
59513;BME280;45330;51.634;5.562;2023-02-12T07:54:26;103844.06;;;6.55;100.00
59513;BME280;45330;51.634;5.562;2023-02-12T07:56:52;103840.41;;;6.51;100.00
59513;BME280;45330;51.634;5.562;2023-02-12T07:59:18;103837.28;;;6.57;100.00
59513;BME280;45330;51.634;5.562;2023-02-12T08:01:47;103835.69;;;6.59;100.00
59513;BME280;45330;51.634;5.562;2023-02-12T08:04:15;103845.56;;;6.66;100.00
59513;BME280;45330;51.634;5.562;2023-02-12T08:06:43;103829.63;;;6.59;100.00
59513;BME280;45330;51.634;5.562;2023-02-12T08:09:12;103836.06;;;6.65;100.00
59513;BME280;45330;51.634;5.562;2023-02-12T08:11:38;103840.63;;;6.69;100.00
59513;BME280;45330;51.634;5.562;2023-02-12T08:14:04;103833.63;;;6.68;100.00
59513;BME280;45330;51.634;5.562;2023-02-12T08:16:30;103849.97;;;6.82;100.00
59513;BME280;45330;51.634;5.562;2023-02-12T08:18:59;103840.31;;;6.80;100.00
59513;BME280;45330;51.634;5.562;2023-02-12T08:21:27;103834.28;;;6.79;100.00
59513;BME280;45330;51.634;5.562;2023-02-12T08:23:54;103820.00;;;6.71;100.00
59513;BME280;45330;51.634;5.562;2023-02-12T08:26:22;103846.75;;;6.86;100.00
59513;BME280;45330;51.634;5.562;2023-02-12T08:28:50;103851.81;;;7.00;100.00
59513;BME280;45330;51.634;5.562;2023-02-12T08:31:25;103861.00;;;7.10;100.00
59513;BME280;45330;51.634;5.562;2023-02-12T08:33:52;103864.59;;;7.12;100.00
59513;BME280;45330;51.634;5.562;2023-02-12T08:36:20;103870.91;;;7.17;100.00
59513;BME280;45330;51.634;5.562;2023-02-12T08:38:46;103876.16;;;7.18;100.00
59513;BME280;45330;51.634;5.562;2023-02-12T08:41:18;103855.91;;;7.11;100.00
59513;BME280;45330;51.634;5.562;2023-02-12T08:43:44;103879.38;;;7.29;100.00
59513;BME280;45330;51.634;5.562;2023-02-12T08:46:15;103866.91;;;7.22;100.00
59513;BME280;45330;51.634;5.562;2023-02-12T08:48:41;103884.91;;;7.35;100.00
59513;BME280;45330;51.634;5.562;2023-02-12T08:51:09;103868.94;;;7.28;100.00
59513;BME280;45330;51.634;5.562;2023-02-12T08:53:37;103887.78;;;7.40;100.00
59513;BME280;45330;51.634;5.562;2023-02-12T08:56:03;103860.63;;;7.33;100.00
59513;BME280;45330;51.634;5.562;2023-02-12T08:58:28;103886.50;;;7.48;100.00
59513;BME280;45330;51.634;5.562;2023-02-12T09:00:54;103886.66;;;7.51;100.00
59513;BME280;45330;51.634;5.562;2023-02-12T09:03:19;103885.31;;;7.58;100.00
59513;BME280;45330;51.634;5.562;2023-02-12T09:05:44;103885.41;;;7.60;100.00
59513;BME280;45330;51.634;5.562;2023-02-12T09:08:10;103878.34;;;7.57;100.00
59513;BME280;45330;51.634;5.562;2023-02-12T09:10:40;103885.72;;;7.66;100.00
59513;BME280;45330;51.634;5.562;2023-02-12T09:13:06;103867.97;;;7.57;100.00
59513;BME280;45330;51.634;5.562;2023-02-12T09:15:39;103878.59;;;7.62;100.00
59513;BME280;45330;51.634;5.562;2023-02-12T09:18:04;103895.69;;;7.75;100.00
59513;BME280;45330;51.634;5.562;2023-02-12T09:20:31;103866.78;;;7.67;100.00
59513;BME280;45330;51.634;5.562;2023-02-12T09:22:57;103872.22;;;7.71;100.00
59513;BME280;45330;51.634;5.562;2023-02-12T09:25:23;103885.19;;;7.88;100.00
59513;BME280;45330;51.634;5.562;2023-02-12T09:27:48;103893.13;;;7.91;100.00
59513;BME280;45330;51.634;5.562;2023-02-12T09:30:14;103896.88;;;7.96;100.00
59513;BME280;45330;51.634;5.562;2023-02-12T09:32:39;103891.84;;;7.99;100.00
59513;BME280;45330;51.634;5.562;2023-02-12T09:35:05;103896.56;;;8.06;100.00
59513;BME280;45330;51.634;5.562;2023-02-12T09:37:30;103877.25;;;8.01;100.00
59513;BME280;45330;51.634;5.562;2023-02-12T09:39:56;103873.94;;;8.04;100.00
59513;BME280;45330;51.634;5.562;2023-02-12T09:42:43;103896.41;;;8.20;100.00
59513;BME280;45330;51.634;5.562;2023-02-12T09:45:19;103893.81;;;8.20;100.00
59513;BME280;45330;51.634;5.562;2023-02-12T09:50:51;103893.63;;;8.33;100.00
59513;BME280;45330;51.634;5.562;2023-02-12T09:53:22;103877.13;;;8.15;100.00
59513;BME280;45330;51.634;5.562;2023-02-12T09:55:49;103899.31;;;8.26;100.00
59513;BME280;45330;51.634;5.562;2023-02-12T09:58:32;103904.75;;;8.31;100.00
59513;BME280;45330;51.634;5.562;2023-02-12T10:01:00;103889.44;;;8.19;100.00
59513;BME280;45330;51.634;5.562;2023-02-12T10:03:29;103893.16;;;8.24;100.00
59513;BME280;45330;51.634;5.562;2023-02-12T10:06:02;103890.31;;;8.19;100.00
59513;BME280;45330;51.634;5.562;2023-02-12T10:11:44;103900.28;;;8.28;100.00
59513;BME280;45330;51.634;5.562;2023-02-12T10:14:29;103886.19;;;8.23;100.00
59513;BME280;45330;51.634;5.562;2023-02-12T10:20:05;103911.22;;;8.39;100.00
59513;BME280;45330;51.634;5.562;2023-02-12T10:28:16;103880.81;;;8.36;100.00
59513;BME280;45330;51.634;5.562;2023-02-12T10:30:54;103878.38;;;8.39;100.00
59513;BME280;45330;51.634;5.562;2023-02-12T10:33:38;103876.97;;;8.45;100.00
59513;BME280;45330;51.634;5.562;2023-02-12T10:39:21;103888.47;;;8.50;100.00
59513;BME280;45330;51.634;5.562;2023-02-12T10:41:55;103896.78;;;8.61;100.00
59513;BME280;45330;51.634;5.562;2023-02-12T10:44:23;103900.47;;;8.64;100.00
59513;BME280;45330;51.634;5.562;2023-02-12T10:46:49;103898.66;;;8.63;100.00
59513;BME280;45330;51.634;5.562;2023-02-12T10:49:17;103881.91;;;8.56;100.00
59513;BME280;45330;51.634;5.562;2023-02-12T10:56:58;103901.25;;;8.80;100.00
59513;BME280;45330;51.634;5.562;2023-02-12T10:59:24;103877.16;;;8.66;100.00
59513;BME280;45330;51.634;5.562;2023-02-12T11:01:50;103874.00;;;8.71;100.00
59513;BME280;45330;51.634;5.562;2023-02-12T11:04:24;103898.28;;;8.90;100.00
59513;BME280;45330;51.634;5.562;2023-02-12T11:07:01;103877.06;;;8.81;100.00
59513;BME280;45330;51.634;5.562;2023-02-12T11:09:30;103894.28;;;8.97;100.00
59513;BME280;45330;51.634;5.562;2023-02-12T11:11:57;103890.97;;;8.99;100.00
59513;BME280;45330;51.634;5.562;2023-02-12T11:14:23;103882.03;;;8.94;100.00
59513;BME280;45330;51.634;5.562;2023-02-12T11:19:21;103890.66;;;9.11;100.00
59513;BME280;45330;51.634;5.562;2023-02-12T11:21:48;103898.91;;;9.02;100.00
59513;BME280;45330;51.634;5.562;2023-02-12T11:27:22;103882.28;;;8.99;100.00
59513;BME280;45330;51.634;5.562;2023-02-12T11:29:45;103868.75;;;8.88;100.00
59513;BME280;45330;51.634;5.562;2023-02-12T11:32:18;103876.47;;;8.86;100.00
59513;BME280;45330;51.634;5.562;2023-02-12T11:34:43;103878.72;;;8.97;100.00
59513;BME280;45330;51.634;5.562;2023-02-12T11:37:18;103889.50;;;9.04;100.00
59513;BME280;45330;51.634;5.562;2023-02-12T11:39:47;103861.34;;;8.96;100.00
59513;BME280;45330;51.634;5.562;2023-02-12T11:42:19;103875.44;;;9.01;100.00
59513;BME280;45330;51.634;5.562;2023-02-12T11:44:55;103875.81;;;9.08;100.00
59513;BME280;45330;51.634;5.562;2023-02-12T11:47:30;103875.00;;;9.09;100.00
59513;BME280;45330;51.634;5.562;2023-02-12T11:50:24;103849.31;;;8.98;100.00
59513;BME280;45330;51.634;5.562;2023-02-12T11:52:50;103860.91;;;9.04;100.00
59513;BME280;45330;51.634;5.562;2023-02-12T11:57:49;103858.16;;;9.19;100.00
59513;BME280;45330;51.634;5.562;2023-02-12T12:00:26;103865.94;;;9.19;100.00
59513;BME280;45330;51.634;5.562;2023-02-12T12:02:57;103848.88;;;9.06;100.00
59513;BME280;45330;51.634;5.562;2023-02-12T12:05:31;103858.38;;;9.06;100.00
59513;BME280;45330;51.634;5.562;2023-02-12T12:08:02;103848.59;;;9.00;100.00
59513;BME280;45330;51.634;5.562;2023-02-12T12:10:40;103857.63;;;9.08;100.00
59513;BME280;45330;51.634;5.562;2023-02-12T12:13:40;103854.81;;;9.22;100.00
59513;BME280;45330;51.634;5.562;2023-02-12T12:16:23;103859.50;;;9.29;100.00
59513;BME280;45330;51.634;5.562;2023-02-12T12:19:18;103839.22;;;9.22;100.00
59513;BME280;45330;51.634;5.562;2023-02-12T12:22:15;103860.97;;;9.24;100.00
59513;BME280;45330;51.634;5.562;2023-02-12T12:28:08;103851.09;;;9.17;100.00
59513;BME280;45330;51.634;5.562;2023-02-12T12:34:05;103853.16;;;9.24;100.00
59513;BME280;45330;51.634;5.562;2023-02-12T12:54:10;103831.22;;;9.17;100.00
59513;BME280;45330;51.634;5.562;2023-02-12T13:08:04;103817.19;;;9.14;100.00
59513;BME280;45330;51.634;5.562;2023-02-12T13:10:50;103814.59;;;9.14;100.00
59513;BME280;45330;51.634;5.562;2023-02-12T13:13:35;103805.97;;;9.15;100.00
59513;BME280;45330;51.634;5.562;2023-02-12T13:16:22;103809.09;;;9.07;100.00
59513;BME280;45330;51.634;5.562;2023-02-12T13:19:11;103791.72;;;8.88;100.00
59513;BME280;45330;51.634;5.562;2023-02-12T13:22:13;103802.72;;;9.01;100.00
59513;BME280;45330;51.634;5.562;2023-02-12T13:24:48;103791.00;;;8.91;100.00
59513;BME280;45330;51.634;5.562;2023-02-12T13:27:24;103781.34;;;8.88;100.00
59513;BME280;45330;51.634;5.562;2023-02-12T13:30:06;103798.78;;;8.91;100.00
59513;BME280;45330;51.634;5.562;2023-02-12T13:32:41;103802.38;;;8.93;100.00
59513;BME280;45330;51.634;5.562;2023-02-12T13:35:16;103782.69;;;8.80;100.00
59513;BME280;45330;51.634;5.562;2023-02-12T13:37:49;103802.03;;;8.87;100.00
59513;BME280;45330;51.634;5.562;2023-02-12T13:40:19;103783.13;;;8.71;100.00
59513;BME280;45330;51.634;5.562;2023-02-12T13:43:15;103800.13;;;8.83;100.00
59513;BME280;45330;51.634;5.562;2023-02-12T13:45:51;103789.59;;;8.80;100.00
59513;BME280;45330;51.634;5.562;2023-02-12T13:48:56;103801.09;;;8.85;100.00
59513;BME280;45330;51.634;5.562;2023-02-12T13:54:27;103776.66;;;8.81;100.00
59513;BME280;45330;51.634;5.562;2023-02-12T13:56:58;103789.94;;;8.87;100.00
59513;BME280;45330;51.634;5.562;2023-02-12T14:05:03;103783.25;;;8.74;100.00
59513;BME280;45330;51.634;5.562;2023-02-12T14:07:39;103785.53;;;8.85;100.00
59513;BME280;45330;51.634;5.562;2023-02-12T14:10:06;103757.75;;;8.66;100.00
59513;BME280;45330;51.634;5.562;2023-02-12T14:12:34;103760.41;;;8.67;100.00
59513;BME280;45330;51.634;5.562;2023-02-12T14:15:08;103770.47;;;8.78;100.00
59513;BME280;45330;51.634;5.562;2023-02-12T14:20:23;103773.34;;;8.84;100.00
59513;BME280;45330;51.634;5.562;2023-02-12T14:27:43;103775.66;;;8.78;100.00
59513;BME280;45330;51.634;5.562;2023-02-12T14:35:36;103763.09;;;8.69;100.00
59513;BME280;45330;51.634;5.562;2023-02-12T14:41:23;103749.44;;;8.55;100.00
59513;BME280;45330;51.634;5.562;2023-02-12T14:46:57;103770.59;;;8.63;100.00
59513;BME280;45330;51.634;5.562;2023-02-12T14:49:31;103752.53;;;8.48;100.00
59513;BME280;45330;51.634;5.562;2023-02-12T14:52:11;103771.25;;;8.58;100.00
59513;BME280;45330;51.634;5.562;2023-02-12T14:54:48;103761.00;;;8.62;100.00
59513;BME280;45330;51.634;5.562;2023-02-12T14:57:26;103761.59;;;8.56;100.00
59513;BME280;45330;51.634;5.562;2023-02-12T15:02:44;103742.28;;;8.33;100.00
59513;BME280;45330;51.634;5.562;2023-02-12T15:05:21;103759.19;;;8.43;100.00
59513;BME280;45330;51.634;5.562;2023-02-12T15:07:52;103755.75;;;8.44;100.00
59513;BME280;45330;51.634;5.562;2023-02-12T15:10:33;103740.56;;;8.33;100.00
59513;BME280;45330;51.634;5.562;2023-02-12T15:13:15;103742.00;;;8.45;100.00
59513;BME280;45330;51.634;5.562;2023-02-12T15:15:56;103743.00;;;8.47;100.00
59513;BME280;45330;51.634;5.562;2023-02-12T15:18:28;103727.88;;;8.39;100.00
59513;BME280;45330;51.634;5.562;2023-02-12T15:24:10;103745.38;;;8.44;100.00
59513;BME280;45330;51.634;5.562;2023-02-12T15:26:50;103746.16;;;8.41;100.00